Date,TemperatureHighF,TemperatureAvgF,TemperatureLowF,DewpointHighF,DewpointAvgF,DewpointLowF,HumidityHigh,HumidityAvg,HumidityLow,PressureMaxIn,PressureMinIn,WindSpeedMaxMPH,WindSpeedAvgMPH,GustSpeedMaxMPH,PrecipitationSumIn
2014-1-1,65.1,61.2,58.0,63.7,59.5,54.8,99,94,86,30.28,30.08,7,0,7,0.06
2014-1-2,81.2,67.6,58.3,72.1,65.9,54.3,100,95,73,30.08,29.81,13,1,15,0.36
2014-1-3,58.2,46.8,42.3,54.3,37.4,28.1,91,70,53,30.29,29.94,13,2,16,0.01
2014-1-4,65.8,55.2,44.9,59.1,51.6,40.1,96,88,74,30.27,30.09,6,0,6,0.00
2014-1-5,80.8,66.6,56.3,68.6,62.5,55.6,99,88,61,30.12,29.96,5,0,5,0.00
2014-1-6,77.3,60.0,41.7,67.9,53.7,25.0,100,81,50,30.32,29.94,11,1,13,0.00
2014-1-7,47.2,38.7,32.1,31.9,23.8,14.7,82,56,32,30.46,30.30,12,1,12,0.00
2014-1-8,67.1,52.5,36.6,54.9,45.3,31.8,91,78,55,30.42,30.30,6,1,11,0.00
2014-1-9,70.2,64.1,56.6,66.5,62.1,53.1,99,93,85,30.33,30.22,8,0,8,0.11
2014-1-10,79.5,70.8,64.0,72.4,68.2,63.7,100,92,71,30.24,30.06,3,0,3,0.01
2014-1-11,83.2,72.0,63.7,72.9,67.8,63.4,100,88,60,30.10,29.89,13,1,13,1.18
2014-1-12,67.2,58.0,42.9,65.7,49.2,38.8,99,76,41,30.23,29.98,9,1,9,0.00
2014-1-13,77.4,59.4,42.2,64.4,54.8,41.9,100,87,60,30.20,29.97,7,0,7,0.00
2014-1-14,73.7,66.5,55.3,68.0,63.5,54.9,99,91,73,30.02,29.89,11,0,11,0.06
2014-1-15,65.1,56.0,48.1,55.2,49.7,43.0,100,82,50,30.06,29.93,7,0,8,0.01
2014-1-16,54.2,46.7,35.1,50.8,35.2,23.6,96,69,32,30.18,29.97,9,1,12,0.14
2014-1-17,63.7,45.6,30.5,47.7,36.4,28.0,99,75,34,30.23,30.10,6,0,6,0.00
2014-1-18,55.4,47.7,33.2,50.0,30.6,17.9,90,56,24,30.29,30.10,10,1,11,0.00
2014-1-19,67.1,47.9,30.5,52.3,42.0,29.6,99,82,45,30.25,30.11,11,0,11,0.00
2014-1-20,68.8,52.2,38.8,53.5,44.4,37.9,100,79,35,30.17,30.03,4,0,8,0.00
2014-1-21,73.0,58.8,47.3,59.7,54.0,43.9,99,85,55,30.05,29.80,13,1,13,0.14
2014-1-22,53.7,42.6,33.3,43.1,30.5,24.6,94,65,35,30.21,29.91,7,1,10,0.00
2014-1-23,59.2,39.9,29.5,37.9,30.6,22.4,98,76,29,30.39,30.20,8,0,8,0.00
2014-1-24,56.4,46.1,39.5,38.4,32.0,21.5,90,59,36,30.49,30.31,12,1,12,0.00
2014-1-25,69.8,53.2,42.8,49.2,44.2,36.3,95,75,42,30.31,30.01,11,0,11,0.01
2014-1-26,67.8,58.3,45.9,60.6,54.4,43.9,98,87,70,30.09,29.98,2,0,6,0.00
2014-1-27,75.9,64.5,59.2,65.9,61.9,58.6,99,92,69,30.04,29.92,7,0,8,0.51
2014-1-28,80.0,65.1,53.0,64.3,59.6,52.8,100,85,57,30.07,29.95,9,0,9,0.00
2014-1-29,61.8,49.3,43.7,61.2,48.3,42.5,99,96,94,30.24,29.98,10,1,10,0.39
2014-1-30,50.7,47.2,43.0,49.8,46.6,42.4,99,98,96,30.21,30.11,9,1,9,0.31
2014-1-31,62.7,55.1,47.9,62.3,54.8,47.6,100,99,98,30.16,30.05,8,0,8,0.43
2014-2-1,76.5,66.4,56.5,72.8,65.5,56.5,100,97,85,30.15,30.05,5,0,5,0.05
2014-2-2,84.0,70.7,62.0,72.3,67.3,62.0,100,90,59,30.18,30.06,8,0,8,0.00
2014-2-3,84.2,69.8,60.8,73.9,66.1,60.8,100,90,53,30.13,30.01,9,0,9,0.07
2014-2-4,83.2,71.3,62.1,73.2,68.0,61.8,100,90,67,30.14,30.02,6,0,6,0.04
2014-2-5,84.7,73.9,66.0,73.8,69.9,65.4,100,88,66,30.08,29.95,10,0,10,0.01
2014-2-6,70.6,59.4,49.3,69.1,56.0,48.2,97,89,73,30.21,30.04,9,1,9,0.06
2014-2-7,58.2,54.3,49.3,57.6,53.5,48.1,99,97,95,30.21,30.13,9,1,9,0.23
2014-2-8,57.6,55.8,52.6,57.3,55.5,51.7,100,99,97,30.19,30.07,8,0,9,0.41
2014-2-9,72.9,57.6,47.1,59.1,52.6,46.8,100,86,52,30.16,30.05,8,0,8,0.00
2014-2-10,74.6,56.5,42.4,55.1,48.7,42.3,100,80,43,30.15,30.05,7,0,7,0.00
2014-2-11,80.7,61.0,46.3,62.6,54.8,46.0,100,83,51,30.10,30.00,9,0,9,0.00
2014-2-12,79.9,64.9,57.2,65.6,60.2,56.0,99,87,57,30.07,29.69,12,0,14,0.74
2014-2-13,63.7,55.5,40.5,62.5,49.2,39.1,99,80,60,30.01,29.68,22,2,22,0.00
2014-2-14,66.8,50.1,35.7,46.6,39.3,33.3,99,72,33,30.11,29.95,7,0,7,0.00
2014-2-15,70.8,57.2,44.3,57.2,45.1,32.1,99,70,25,30.16,29.91,14,1,14,0.00
2014-2-16,72.9,52.9,37.4,46.2,40.3,32.1,99,70,23,30.23,30.13,6,0,6,0.00
2014-2-17,78.7,56.1,38.3,49.8,43.3,37.1,99,70,24,30.27,30.16,6,0,6,0.00
2014-2-18,81.7,61.6,44.4,58.0,51.3,43.8,99,74,36,30.25,30.16,7,0,7,0.00
2014-2-19,83.6,66.3,51.1,64.9,58.4,50.8,100,79,41,30.20,30.07,7,0,7,0.00
2014-2-20,85.0,69.9,53.8,68.2,62.9,53.5,100,81,47,30.18,30.06,12,0,12,0.00
2014-2-21,80.8,70.3,63.9,74.1,67.7,63.3,100,92,72,30.08,29.99,10,0,10,0.21
2014-2-22,74.0,67.1,59.1,71.8,66.1,58.8,100,97,91,30.11,30.03,4,0,7,0.51
2014-2-23,84.0,67.1,57.8,74.0,64.5,57.8,100,92,64,30.09,29.96,14,0,16,0.03
2014-2-24,75.3,66.6,58.7,67.4,63.7,58.2,100,91,75,30.09,29.96,8,0,8,0.00
2014-2-25,81.9,66.6,57.3,64.8,60.6,57.0,100,84,49,30.08,29.94,4,0,7,0.00
2014-2-26,69.7,61.7,54.7,64.7,60.4,54.3,100,96,73,29.98,29.72,6,0,6,0.66
2014-2-27,62.2,55.8,50.6,61.9,52.4,47.1,100,89,65,29.98,29.78,3,0,9,0.06
2014-2-28,72.0,55.9,41.2,53.1,47.4,40.7,99,77,41,30.14,29.96,9,1,9,0.00
2014-3-1,75.8,59.2,44.7,61.3,54.0,44.3,100,85,55,30.24,30.10,7,0,7,0.00
2014-3-2,80.3,64.0,49.3,64.0,58.1,49.0,100,83,54,30.23,30.07,7,0,7,0.00
2014-3-3,83.9,67.9,53.7,64.5,59.6,53.4,100,78,43,30.08,29.95,13,1,13,0.00
2014-3-4,80.2,66.3,57.0,67.4,62.1,56.1,100,88,59,30.08,29.97,8,0,9,0.20
2014-3-5,73.0,61.7,57.3,64.8,58.9,56.4,99,91,72,30.09,29.98,8,1,8,0.00
2014-3-6,70.1,64.3,58.1,68.9,62.8,56.9,98,95,86,30.05,29.69,3,0,8,0.12
2014-3-7,60.5,55.5,45.2,58.8,52.1,42.3,99,88,77,30.08,29.78,12,1,12,0.01
2014-3-8,75.2,58.2,46.1,56.8,50.6,42.7,98,78,49,30.17,30.07,8,0,8,0.00
2014-3-9,79.5,61.9,46.3,57.4,52.3,46.0,100,75,38,30.22,30.08,6,0,6,0.00
2014-3-10,81.5,64.3,50.6,57.0,52.3,47.2,99,71,31,30.15,29.97,6,0,7,0.00
2014-3-11,84.0,65.4,48.9,60.2,54.5,48.6,100,73,33,30.02,29.83,8,0,8,0.00
2014-3-12,81.0,71.1,63.1,69.2,64.2,59.4,95,80,54,29.86,29.71,10,2,14,0.11
2014-3-13,69.3,59.6,48.1,60.6,42.1,32.8,88,56,28,30.23,29.83,16,1,16,0.00
2014-3-14,75.7,56.7,39.1,54.1,47.1,38.2,98,74,42,30.30,30.17,10,0,10,0.00
2014-3-15,81.8,63.4,46.5,58.7,52.5,46.0,99,73,35,30.21,30.03,7,0,7,0.00
2014-3-16,85.4,70.6,55.8,64.8,60.6,55.2,99,74,46,30.06,29.75,7,1,13,0.00
2014-3-17,76.6,71.9,68.9,72.5,68.2,62.8,99,88,77,29.79,29.65,7,0,7,1.11
2014-3-18,76.8,67.6,59.5,71.5,60.7,54.3,99,81,49,30.07,29.59,12,1,14,1.03
2014-3-19,80.7,65.0,54.9,63.2,57.8,54.0,98,80,44,30.14,30.02,4,0,8,0.00
2014-3-20,83.0,66.7,54.7,63.8,59.6,54.1,99,80,49,30.10,29.96,9,0,9,0.00
2014-3-21,83.0,68.6,57.1,64.2,60.2,56.8,100,78,46,30.12,30.03,9,0,9,0.00
2014-3-22,86.7,73.6,62.8,69.7,62.1,53.2,99,70,42,30.08,29.94,10,1,10,0.00
2014-3-23,82.5,71.9,60.8,69.7,64.3,54.6,94,77,58,30.05,29.92,10,1,11,0.00
2014-3-24,76.0,68.2,63.8,66.5,63.0,59.6,94,84,67,30.08,29.92,11,1,11,0.00
2014-3-25,76.8,66.0,58.3,62.9,55.3,35.3,95,72,32,30.04,29.82,9,1,15,0.00
2014-3-26,63.4,52.4,43.0,41.6,32.4,22.9,87,48,34,30.32,30.04,14,1,14,0.00
2014-3-27,68.5,58.5,42.4,58.7,52.9,40.6,96,82,64,30.35,30.23,7,0,7,0.00
2014-3-28,82.5,70.0,58.6,70.0,63.8,57.1,98,82,56,30.24,30.02,11,0,11,0.01
2014-3-29,75.9,69.7,66.5,72.4,67.9,64.9,99,94,83,30.06,29.88,11,0,11,1.52
2014-3-30,75.9,64.8,54.9,66.5,52.0,43.3,97,67,32,30.10,29.91,6,1,12,0.00
2014-3-31,79.8,60.6,46.1,54.7,48.4,39.9,99,71,26,30.17,30.08,4,0,4,0.00
2014-4-1,85.2,61.7,43.9,59.6,50.2,43.6,100,74,26,30.21,30.10,6,0,6,0.00
2014-4-2,87.3,67.0,49.7,62.5,56.4,49.4,100,74,35,30.21,30.11,8,0,8,0.00
2014-4-3,88.6,70.6,53.7,67.4,62.3,53.4,99,78,42,30.16,30.03,4,0,7,0.00
2014-4-4,87.5,71.8,59.1,67.5,63.8,58.5,99,79,44,30.09,29.98,10,0,10,0.00
2014-4-5,86.6,72.0,60.2,68.1,64.1,59.8,99,79,45,30.07,29.95,6,0,6,0.00
2014-4-6,89.5,75.9,66.0,69.3,65.2,59.1,98,73,39,30.05,29.92,10,0,10,0.00
2014-4-7,91.7,79.2,69.8,72.3,68.6,65.9,93,72,48,29.96,29.80,12,1,12,0.02
2014-4-8,79.6,71.9,62.6,74.3,68.3,57.3,97,89,81,29.86,29.70,12,1,12,0.63
2014-4-9,77.2,64.8,52.4,57.6,53.3,49.3,98,70,40,30.19,29.86,9,0,9,0.03
2014-4-10,80.1,64.0,49.5,60.2,54.8,49.2,99,76,42,30.30,30.18,8,0,8,0.00
2014-4-11,81.8,66.2,51.4,65.7,59.2,50.8,99,81,54,30.28,30.15,5,0,13,0.00
2014-4-12,83.9,69.2,57.5,66.4,60.3,56.8,99,77,46,30.22,30.12,10,0,11,0.00
2014-4-13,84.3,72.0,59.4,68.3,63.8,58.4,99,78,48,30.16,30.04,13,1,13,0.00
2014-4-14,90.7,74.8,62.6,72.3,66.1,59.5,99,78,42,30.05,29.86,7,0,7,0.00
2014-4-16,75.2,68.7,58.5,62.7,60.4,57.2,97,76,62,30.17,30.09,14,2,15,0.00
2014-4-17,77.7,67.9,56.8,68.5,63.3,56.2,99,86,67,30.24,30.13,13,1,13,0.00
2014-4-18,81.7,72.1,66.7,74.6,69.0,65.7,98,90,68,30.17,29.93,15,0,15,0.18
2014-4-19,67.8,66.7,65.8,67.7,66.3,65.5,100,99,98,29.93,29.86,2,0,2,0.01
2014-4-20,70.0,65.0,60.0,61.9,59.3,57.7,97,82,72,30.11,29.95,8,0,9,0.01
2014-4-21,75.9,65.1,56.9,64.4,60.2,56.0,97,85,65,30.10,29.98,5,0,10,0.00
2014-4-22,82.3,67.9,53.1,65.2,59.7,52.8,99,78,52,30.00,29.83,9,0,9,0.00
2014-4-23,88.3,73.7,58.2,67.8,63.3,57.6,99,73,41,29.95,29.85,5,0,5,0.00
2014-4-24,89.8,73.9,59.6,71.4,66.0,59.0,99,79,47,30.02,29.91,8,0,8,0.00
2014-4-25,88.8,76.4,62.1,68.2,65.1,61.5,99,72,43,30.02,29.91,8,1,8,0.00
2014-4-26,89.8,74.3,63.3,72.2,66.0,62.8,99,79,42,30.03,29.94,7,0,7,0.00
2014-4-27,93.6,77.0,63.6,74.2,68.8,63.3,99,79,39,30.03,29.92,9,0,9,0.00
2014-4-28,94.3,79.6,67.4,72.7,69.9,66.7,99,75,45,29.98,29.87,8,0,8,0.00
2014-4-29,92.3,78.2,69.3,76.4,71.8,68.5,98,82,53,30.04,29.87,9,0,9,1.96
2014-4-30,89.5,76.1,68.9,77.4,72.5,68.5,100,90,64,30.08,29.95,8,0,8,0.10
2014-5-1,73.4,71.7,70.7,70.9,70.0,69.2,96,95,92,29.99,29.96,0,0,1,0.18
2014-5-2,77.1,72.0,69.1,74.1,70.8,67.6,99,96,88,29.96,29.90,6,0,6,0.85
2014-5-3,75.7,68.0,61.6,72.9,67.2,61.0,100,97,89,30.05,29.89,6,0,6,0.39
2014-5-4,85.7,69.4,57.4,61.5,57.8,50.8,100,73,32,30.09,30.00,10,0,10,0.01
2014-5-5,91.5,72.1,56.0,66.4,59.5,55.5,100,70,37,30.08,29.97,6,0,6,0.00
2014-5-6,92.3,73.8,57.2,67.9,60.7,56.3,99,69,33,30.06,29.97,6,0,9,0.00
2014-5-7,92.7,76.4,61.2,73.1,64.7,56.2,100,72,31,30.16,30.03,4,0,9,0.00
2014-5-8,92.2,76.2,63.0,73.6,67.5,62.7,100,78,41,30.21,30.12,8,0,8,0.00
2014-5-9,92.8,77.4,63.3,73.9,68.3,63.0,100,77,45,30.20,30.08,8,0,8,0.00
2014-5-10,92.2,78.8,67.2,72.6,69.1,66.3,99,75,45,30.17,30.04,9,0,9,0.00
2014-5-11,87.5,76.7,72.6,73.7,71.8,70.7,95,85,61,30.16,30.07,5,0,6,0.00
2014-5-12,89.3,81.3,71.8,72.7,70.5,66.9,95,71,50,30.17,30.10,6,0,10,0.00
2014-5-13,88.9,77.5,67.3,73.5,70.7,67.0,99,81,55,30.11,30.04,7,0,10,0.00
2014-5-14,86.7,78.8,71.4,78.9,73.5,70.8,99,85,69,30.08,29.95,7,0,7,0.02
2014-5-15,90.3,76.7,72.3,77.6,73.5,70.7,98,90,64,30.02,29.88,11,0,11,0.48
2014-5-16,82.1,70.3,57.8,71.0,57.4,47.8,96,69,33,30.13,29.95,10,1,12,0.00
2014-5-17,82.7,67.3,53.7,61.5,55.8,53.3,99,71,40,30.18,30.11,11,1,11,0.00
2014-5-18,82.8,63.2,53.9,65.6,58.0,53.3,99,86,49,30.18,30.14,9,0,9,0.00
2014-5-19,72.9,70.2,67.9,66.9,66.2,65.2,94,87,77,30.19,30.15,2,0,2,0.00
2014-5-20,86.3,73.7,62.0,70.2,64.1,60.3,99,75,46,30.23,30.15,12,1,12,0.00
2014-5-21,89.7,73.5,56.8,68.1,62.5,56.1,99,72,43,30.20,30.11,7,0,8,0.00
2014-5-22,94.3,78.2,61.6,72.7,67.0,60.6,99,72,43,30.16,30.00,7,0,7,0.00
2014-5-23,96.3,80.6,66.6,73.7,69.2,65.4,99,72,40,30.09,29.99,6,0,7,0.00
2014-5-24,96.8,81.6,69.0,76.0,71.0,68.0,99,73,41,30.08,29.99,7,0,7,0.00
2014-5-25,93.7,80.7,71.7,77.1,73.0,70.7,99,79,49,30.14,30.02,11,0,11,0.00
2014-5-26,89.5,78.6,71.0,77.1,72.1,66.7,99,82,55,30.19,30.11,9,0,10,0.00
2014-5-27,90.5,76.8,65.9,74.4,69.5,65.6,99,80,51,30.17,30.05,7,0,7,0.00
2014-5-28,94.2,77.7,65.6,74.5,69.6,64.8,99,79,41,30.09,29.99,6,0,6,0.00
2014-5-29,95.0,79.2,69.1,76.1,71.6,67.5,99,80,43,30.05,29.95,7,0,8,0.00
2014-5-30,90.5,77.2,67.7,75.5,71.4,67.1,99,84,53,30.04,29.98,8,0,8,0.01
2014-5-31,81.0,76.5,72.3,76.2,73.6,71.4,98,91,82,30.05,29.98,4,0,4,0.17
2014-6-1,87.5,76.1,70.4,76.9,72.8,70.0,99,90,63,30.11,30.02,10,0,10,0.47
2014-6-2,86.2,76.3,68.4,72.4,69.4,65.5,98,80,57,30.15,30.06,11,1,11,0.00
2014-6-3,82.5,72.8,63.7,71.8,67.6,63.1,99,84,64,30.10,30.00,6,0,6,0.01
2014-6-4,89.5,76.0,63.4,71.8,65.6,62.8,99,74,45,30.03,29.92,7,0,7,0.00
2014-6-5,67.8,66.5,65.3,64.4,63.8,63.3,94,91,88,29.96,29.95,0,0,0,0.00
2014-6-8,72.3,72.0,71.7,71.9,71.6,71.2,99,98,98,30.00,29.94,4,0,4,1.30
2014-6-9,94.3,79.7,68.9,77.7,73.5,68.6,100,82,52,29.99,29.90,6,0,6,0.00
2014-6-10,99.0,78.5,71.1,79.6,73.1,68.9,100,86,41,30.06,29.92,12,0,12,0.36
2014-6-11,90.4,74.0,69.0,78.0,71.4,67.0,100,93,61,30.01,29.92,15,0,19,1.23
2014-6-12,90.2,73.5,68.8,76.2,70.5,66.2,100,91,55,30.02,29.92,15,0,15,0.11
2014-6-13,86.5,74.6,68.1,77.3,71.5,67.7,100,91,69,30.04,29.95,10,0,10,0.30
2014-6-15,77.1,73.9,70.7,73.8,71.4,69.7,97,92,82,30.13,30.08,3,0,4,0.03
2014-6-16,92.0,77.4,67.2,76.5,71.7,66.9,100,84,53,30.17,30.08,10,0,10,0.15
2014-6-18,86.8,79.6,72.3,76.2,73.0,71.4,97,81,64,30.13,30.08,6,0,9,0.22
2014-6-19,90.2,78.8,68.6,77.1,72.8,68.3,100,83,57,30.15,30.06,7,0,8,0.05
2014-6-20,93.1,79.9,70.9,77.0,73.9,70.3,99,83,54,30.09,29.97,7,0,8,0.00
2014-6-24,92.8,79.6,74.7,76.4,74.3,72.7,97,85,57,30.13,30.03,7,0,7,0.03
2014-6-25,98.0,81.9,70.2,78.8,74.0,69.9,100,80,43,30.14,30.01,10,0,11,0.44
2014-6-26,95.2,81.0,72.7,78.4,74.8,70.2,100,83,54,30.11,29.96,7,0,8,0.29
2014-6-27,96.3,80.5,72.3,79.1,73.9,70.4,99,82,50,30.11,30.01,13,0,14,0.00
2014-6-28,98.5,83.2,70.9,77.6,73.6,70.0,99,76,41,30.14,30.06,8,0,8,0.00
2014-6-29,97.2,82.9,73.2,78.2,74.6,72.3,99,78,46,30.14,30.03,6,1,11,0.00
2014-6-30,92.7,82.1,74.5,79.5,75.6,73.5,98,82,57,30.06,29.93,12,1,13,0.00
2014-7-1,93.0,82.1,74.9,79.4,75.8,74.0,98,82,55,29.95,29.86,12,1,13,0.11
2014-7-2,90.1,80.6,74.7,79.7,75.7,73.5,96,86,65,29.93,29.85,6,1,11,0.37
2014-7-3,95.5,81.4,74.6,80.9,75.7,72.7,98,84,51,30.09,29.92,13,1,18,0.97
2014-7-4,92.0,76.9,73.0,79.9,74.4,71.7,99,93,62,30.12,30.02,6,0,7,0.19
2014-7-5,93.6,78.3,71.6,79.1,73.7,71.1,99,88,57,30.13,30.04,4,0,7,3.93
2014-7-6,88.8,76.0,70.5,80.8,73.6,70.2,99,93,70,30.11,30.03,6,0,9,0.31
2014-7-7,90.9,78.6,68.2,80.1,74.4,68.1,100,88,67,30.13,30.04,3,0,5,0.00
2014-7-8,94.5,80.0,71.5,78.7,74.4,71.2,100,85,54,30.15,30.05,9,0,9,0.83
2014-7-9,91.3,75.1,70.9,79.3,73.5,70.6,100,95,64,30.14,30.05,1,0,5,0.09
2014-7-10,93.7,78.0,70.4,79.3,74.0,70.1,100,89,55,30.13,30.03,6,0,7,0.18
2014-7-11,92.8,79.2,70.1,79.6,74.4,69.8,100,86,57,30.17,30.07,6,0,6,0.00
2014-7-12,95.8,79.1,72.0,79.8,74.3,71.7,99,87,51,30.16,30.08,8,0,8,0.36
2014-7-13,96.3,78.1,71.4,80.5,74.1,69.9,100,89,52,30.12,30.06,7,0,9,1.42
2014-7-14,93.0,79.1,71.5,82.1,74.9,71.3,100,88,61,30.10,30.00,7,0,7,0.05
2014-7-15,93.3,76.9,71.4,80.2,74.0,70.5,100,92,59,30.04,29.94,12,0,12,1.05
2014-7-16,88.8,76.7,73.2,79.4,74.8,72.7,99,94,70,29.99,29.89,9,0,12,0.42
2014-7-17,92.7,80.8,74.0,78.0,75.3,73.2,99,85,57,30.02,29.91,6,0,6,0.00
2014-7-18,95.6,81.7,70.5,79.4,74.4,69.0,100,81,44,30.09,30.00,5,0,7,0.00
2014-7-19,96.2,83.0,72.9,79.6,76.0,72.6,100,82,50,30.09,30.01,5,0,5,0.00
2014-7-20,96.5,81.3,74.3,80.2,76.3,71.8,99,86,49,30.07,29.99,7,0,10,0.37
2014-7-21,95.2,80.5,72.4,80.0,75.0,72.1,100,85,53,30.08,29.99,7,0,8,0.63
2014-7-22,94.5,80.0,72.5,80.5,75.3,72.2,100,87,56,30.08,30.00,6,0,7,0.01
2014-7-23,95.3,82.4,71.4,79.5,75.7,71.1,100,82,48,30.08,29.98,4,0,4,0.02
2014-7-24,87.3,77.0,74.9,79.7,75.8,74.1,99,96,75,30.05,29.98,1,0,2,2.10
2014-7-25,96.8,79.4,73.6,80.9,75.8,72.6,100,90,53,30.08,30.01,10,0,10,0.66
2014-7-26,95.5,80.4,72.9,81.6,75.5,72.8,100,87,55,30.10,30.02,6,0,6,0.00
2014-7-27,94.7,83.1,73.7,80.1,76.5,73.4,100,82,57,30.09,30.01,10,0,12,0.00
2014-7-28,94.8,87.6,76.2,79.7,77.2,75.3,97,72,56,30.05,29.93,11,1,11,0.00
2014-7-29,93.3,80.8,74.4,81.2,76.5,72.2,98,87,62,29.99,29.90,10,0,10,0.17
2014-7-30,95.5,82.9,73.4,76.5,72.3,65.9,99,74,39,29.98,29.91,7,0,7,0.01
2014-7-31,96.3,82.2,71.6,80.2,75.6,71.0,99,82,53,29.99,29.91,6,0,7,0.00
2014-8-1,96.1,83.5,74.2,79.0,75.3,72.1,99,79,48,29.99,29.92,6,0,6,0.00
2014-8-2,94.8,83.6,74.3,80.7,76.8,73.7,99,82,56,30.00,29.91,8,0,10,0.00
2014-8-3,95.0,81.9,75.9,80.5,77.2,74.9,99,87,59,29.96,29.86,9,0,12,0.00
2014-8-4,92.8,80.1,75.1,80.1,76.4,73.1,99,89,61,29.96,29.86,8,0,8,0.07
2014-8-5,92.1,81.3,73.2,79.6,75.8,72.7,99,85,61,30.05,29.93,6,0,7,0.00
2014-8-6,98.0,82.4,73.4,79.3,75.3,70.9,100,82,43,30.06,29.96,7,0,7,1.50
2014-8-7,94.3,80.2,72.9,81.6,75.7,72.5,100,87,57,30.02,29.93,6,0,7,0.04
2014-8-8,96.7,81.2,72.1,79.4,75.3,71.3,100,84,52,30.07,29.94,8,0,8,0.19
2014-8-9,94.8,80.8,72.6,80.0,75.0,71.9,100,84,52,30.08,29.98,9,0,9,0.01
2014-8-10,94.0,80.3,74.2,80.2,75.3,72.0,99,86,58,30.06,29.99,11,0,11,0.00
2014-8-11,90.4,79.0,73.2,80.6,75.2,72.3,99,89,66,30.04,29.98,8,0,12,0.10
2014-8-12,93.3,84.4,74.8,78.3,75.3,73.0,96,75,55,30.00,29.93,11,1,13,0.00
2014-8-13,96.4,82.6,72.4,79.3,75.4,72.1,100,81,49,30.01,29.94,5,0,11,0.03
2014-8-14,94.3,82.2,74.2,80.8,76.1,71.2,100,83,57,30.02,29.95,9,0,9,0.01
2014-8-15,87.8,79.2,72.6,80.4,74.9,71.4,99,87,70,30.05,29.97,6,0,6,0.05
2014-8-16,94.0,80.3,73.0,79.3,75.2,71.4,99,85,56,30.08,29.99,13,0,14,0.00
2014-8-17,96.6,83.0,71.7,79.6,75.5,71.3,100,81,49,30.12,30.01,7,0,9,0.01
2014-8-18,96.6,82.3,73.1,79.5,75.4,71.7,100,82,50,30.07,29.95,11,0,11,0.00
2014-8-19,97.8,83.9,73.1,79.4,75.0,72.6,100,77,46,30.04,29.93,7,0,7,0.00
2014-8-20,98.7,84.3,72.8,79.3,75.0,70.9,99,77,43,30.09,29.98,7,0,7,0.00
2014-8-21,99.5,83.4,73.6,79.8,74.9,69.5,99,78,44,30.13,30.01,5,0,8,0.03
2014-8-22,99.3,81.7,72.1,79.8,74.2,71.7,99,80,44,30.09,29.98,7,0,10,0.01
2014-8-23,100.0,82.9,71.4,79.8,74.9,70.8,99,79,45,30.01,29.85,10,0,11,0.00
2014-8-24,98.5,83.4,74.3,79.7,76.7,73.0,99,82,49,29.89,29.77,8,0,12,0.00
2014-8-25,92.2,83.5,77.4,78.3,75.2,71.7,94,78,54,29.89,29.80,14,1,15,0.00
2014-8-26,92.1,81.9,73.6,76.8,73.5,70.2,98,78,51,29.96,29.85,11,1,12,0.01
2014-8-27,92.8,80.0,72.0,76.7,72.9,70.2,98,81,51,30.01,29.92,9,1,10,0.00
2014-8-28,95.2,82.4,69.1,77.4,73.9,68.8,99,78,47,30.02,29.94,9,0,10,0.00
2014-8-29,94.5,78.3,73.4,80.3,75.3,72.2,99,92,57,30.13,29.99,8,0,8,2.06
2014-8-30,95.8,81.3,71.3,81.1,75.3,71.2,100,84,49,30.15,30.03,6,0,7,0.01
2014-8-31,93.8,81.4,73.2,80.7,75.9,72.9,100,85,54,30.14,30.05,6,0,8,0.00
2014-9-1,95.0,81.9,72.4,79.8,75.3,72.1,100,82,53,30.13,30.02,7,0,7,0.00
2014-9-2,95.3,83.7,72.6,79.1,74.5,71.8,100,76,49,30.11,29.98,8,0,8,0.00
2014-9-3,91.2,80.0,71.0,79.2,74.0,70.5,99,83,57,30.06,29.97,7,0,8,0.01
2014-9-4,90.4,77.1,71.6,77.7,73.6,71.3,100,90,61,30.11,30.03,5,0,6,0.02
2014-9-5,93.2,78.0,72.9,77.7,74.2,71.4,99,90,54,30.13,30.04,7,0,9,0.61
2014-9-6,92.0,76.7,71.2,79.8,74.1,70.9,100,92,61,30.08,29.96,5,0,6,1.03
2014-9-7,90.4,76.3,72.3,80.7,74.2,72.0,100,94,64,30.04,29.95,6,0,7,0.10
2014-9-8,92.5,77.7,70.6,79.0,74.0,70.4,100,90,55,30.07,29.98,5,0,5,0.15
2014-9-9,94.5,78.6,70.8,79.1,73.9,70.7,100,88,47,30.08,29.97,5,0,6,2.92
2014-9-10,91.7,78.9,72.0,79.4,74.9,71.7,100,89,60,30.05,29.96,7,0,8,0.05
2014-9-11,92.7,80.5,71.0,79.1,74.3,70.7,100,83,55,30.04,29.95,8,0,10,0.00
2014-9-12,88.7,79.7,73.1,80.5,76.1,72.2,99,89,70,30.02,29.93,5,0,8,0.28
2014-9-13,92.7,80.3,71.8,77.6,74.1,71.5,100,83,56,30.10,29.98,7,0,8,0.00
2014-9-14,93.6,79.9,71.7,76.3,73.5,71.2,99,83,50,30.15,30.05,5,0,5,0.07
2014-9-15,92.9,79.0,70.3,76.4,73.3,70.0,100,84,52,30.17,30.07,4,0,8,0.00
2014-9-16,91.3,79.9,73.1,77.3,73.6,70.0,99,83,53,30.13,29.96,8,0,8,0.00
2014-9-17,85.6,78.5,73.0,77.1,74.4,72.0,98,88,72,29.97,29.85,5,0,6,0.04
2014-9-18,93.5,78.2,69.7,77.0,73.7,69.3,100,88,52,29.95,29.85,10,0,10,0.09
2014-9-19,85.3,74.9,69.9,78.7,73.1,69.0,100,95,75,29.99,29.90,6,0,8,0.21
2014-9-20,84.5,74.1,69.4,76.4,71.9,69.1,99,93,67,29.99,29.86,6,0,6,0.97
2014-9-21,90.3,77.2,69.3,76.8,72.2,69.0,100,86,51,30.03,29.92,5,0,6,0.00
2014-9-22,88.3,75.4,71.3,77.7,73.3,70.0,100,94,67,30.04,29.96,5,0,10,0.14
2014-9-23,89.0,75.6,69.3,77.3,72.6,69.0,100,92,62,30.03,29.94,8,0,8,1.81
2014-9-24,81.9,74.7,70.1,75.9,72.6,69.6,100,94,79,30.11,30.00,7,0,7,0.04
2014-9-25,87.8,75.4,68.0,77.9,72.3,67.4,99,90,70,30.12,30.01,10,1,10,0.00
2014-9-26,89.3,76.2,71.2,78.7,74.2,70.5,99,94,68,30.04,29.97,5,0,7,0.71
2014-9-27,89.8,76.9,72.6,80.4,75.2,72.3,100,95,69,30.02,29.96,6,0,7,0.31
2014-9-28,88.1,78.2,73.9,81.4,76.4,73.6,100,95,74,30.02,29.91,7,0,7,0.10
2014-9-29,90.7,76.9,72.9,79.2,74.4,72.3,99,93,60,29.98,29.82,8,0,8,0.99
2014-9-30,87.0,76.3,72.1,78.7,74.5,72.1,100,95,71,29.86,29.79,4,0,5,0.60
2014-10-1,83.1,76.0,72.0,78.8,74.9,71.7,100,97,84,29.98,29.85,5,0,5,0.20
2014-10-2,90.2,78.1,71.1,78.8,74.1,71.1,100,89,62,30.05,29.96,8,0,8,0.00
2014-10-3,92.5,78.7,69.4,78.8,74.3,69.2,100,88,58,30.04,29.91,8,0,8,0.16
2014-10-4,87.2,75.7,64.8,76.5,70.5,58.7,100,85,53,29.94,29.81,7,0,8,0.01
2014-10-5,79.8,66.6,52.7,59.5,54.2,45.1,94,66,43,30.06,29.93,6,0,6,0.00
2014-10-6,84.3,67.5,53.6,68.8,61.2,53.3,100,83,48,30.10,30.01,4,0,6,0.00
2014-10-7,87.3,73.9,65.2,74.1,68.9,64.5,99,86,58,30.11,30.03,4,0,5,0.00
2014-10-8,91.2,76.7,68.0,74.9,70.4,67.7,100,83,49,30.15,30.03,5,0,6,0.00
2014-10-9,89.3,75.3,64.3,74.5,70.1,64.0,100,85,56,30.12,30.03,9,0,9,0.00
2014-10-10,91.3,76.3,66.4,75.6,70.0,66.1,100,83,51,30.09,30.00,8,0,8,0.00
2014-10-11,90.4,75.0,64.9,76.9,69.8,64.6,100,86,56,30.06,29.98,5,0,7,0.00
2014-10-12,89.9,75.3,64.3,75.3,70.0,64.0,100,86,57,30.08,30.01,7,0,7,0.01
2014-10-13,89.5,75.8,65.9,74.4,70.0,65.5,100,84,52,30.11,30.01,6,0,9,0.00
2014-10-14,90.8,77.1,69.6,78.1,73.2,69.0,99,89,61,30.05,29.90,9,0,9,0.36
2014-10-15,83.0,74.2,61.3,74.4,69.4,59.9,99,86,63,29.99,29.89,4,0,5,0.04
2014-10-16,70.5,59.9,56.0,63.0,58.7,55.7,100,96,66,29.98,29.90,3,0,3,0.00
2014-10-17,81.8,66.1,53.7,63.2,58.6,53.4,100,81,47,30.01,29.92,1,0,6,0.00
2014-10-18,83.7,66.6,53.4,64.8,59.4,53.1,100,81,45,30.00,29.89,1,0,6,0.01
2014-10-19,84.8,73.3,56.6,69.4,65.6,56.3,100,79,56,30.05,29.96,7,0,8,0.00
2014-10-20,86.0,72.5,62.9,72.0,67.6,62.6,100,86,57,30.07,29.94,6,0,7,0.00
2014-10-21,86.7,73.8,66.2,73.9,69.7,65.8,99,88,58,29.98,29.89,4,0,5,0.00
2014-10-22,85.0,72.0,63.8,68.0,64.5,59.6,100,80,43,30.01,29.91,9,0,9,0.01
2014-10-23,80.9,67.9,56.2,62.9,59.3,55.6,99,76,46,30.02,29.93,6,0,10,0.00
2014-10-24,80.6,67.8,58.0,64.2,59.7,56.0,97,77,50,30.00,29.90,7,0,8,0.00
2014-10-25,80.3,66.7,54.7,62.2,58.3,53.6,98,77,48,30.00,29.92,6,0,7,0.00
2014-10-26,81.8,63.9,50.4,60.3,55.4,50.1,100,79,38,30.03,29.94,6,0,6,0.00
2014-10-27,85.0,66.5,52.0,67.5,60.2,51.6,100,83,46,30.12,30.01,4,0,5,0.01
2014-10-28,85.8,69.0,55.9,69.8,63.3,55.6,100,84,51,30.18,30.08,5,0,5,0.00
2014-10-29,85.8,69.6,58.8,69.7,63.6,58.5,100,84,47,30.12,29.98,5,0,6,0.00
2014-10-30,84.4,70.1,59.5,70.7,65.0,59.2,100,86,57,30.01,29.86,2,0,5,0.01
2014-10-31,79.3,68.8,58.9,66.3,58.4,48.1,98,73,36,29.89,29.77,7,0,8,0.00
2014-11-1,61.6,55.4,44.6,53.2,39.4,26.8,95,59,30,30.17,29.86,10,1,14,0.00
2014-11-2,65.4,46.1,37.7,42.6,39.0,36.4,96,79,36,30.30,30.17,6,0,7,0.00
2014-11-3,73.7,56.8,40.4,56.4,50.0,39.9,99,81,52,30.37,30.29,2,0,10,0.00
2014-11-4,79.6,61.7,51.6,62.0,57.5,51.1,99,88,45,30.33,30.21,1,0,9,0.00
2014-11-5,82.2,64.9,57.6,66.8,60.4,57.3,100,88,49,30.25,30.13,3,0,7,0.00
2014-11-6,84.3,68.4,57.6,67.9,61.5,57.1,100,81,47,30.17,29.97,8,0,8,0.00
2014-11-7,74.8,64.3,49.9,66.0,57.3,48.8,99,80,47,30.01,29.92,7,0,8,0.00
2014-11-8,77.1,61.2,48.5,66.0,56.7,47.9,99,87,59,29.99,29.84,4,0,4,0.06
2014-11-9,68.7,62.4,58.0,62.6,59.8,57.1,98,92,78,29.95,29.85,6,0,6,0.36
2014-11-10,68.3,63.2,58.0,64.9,61.3,55.9,98,94,88,29.96,29.90,7,0,7,0.22
2014-11-11,79.2,65.5,55.9,66.5,59.7,52.8,96,82,59,29.97,29.88,9,0,9,0.01
2014-11-12,59.6,56.1,53.2,56.3,54.1,52.1,97,93,89,29.97,29.95,1,0,2,0.00
2014-11-13,80.2,69.8,53.3,63.9,59.8,53.0,99,73,41,30.08,29.97,2,0,4,0.00
2014-11-14,68.3,61.0,50.6,62.5,57.8,48.1,99,90,62,30.17,29.99,4,0,5,0.00
2014-11-15,74.5,58.7,43.6,63.2,54.7,43.0,99,88,65,30.25,30.13,6,0,7,0.00
2014-11-16,82.2,65.7,52.1,67.9,61.4,51.8,100,88,59,30.22,30.04,5,0,7,0.01
2014-11-17,82.7,70.2,63.6,73.9,68.3,63.3,100,94,70,30.04,29.88,10,0,12,1.25
2014-11-18,67.5,50.2,40.4,67.2,45.1,31.6,99,83,59,30.32,29.95,8,0,8,0.05
2014-11-19,58.9,49.5,40.0,51.1,42.5,29.4,93,77,59,30.38,30.26,8,1,9,0.00
2014-11-20,65.3,51.2,41.1,50.6,44.0,37.0,97,78,51,30.31,30.19,7,0,7,0.00
2014-11-21,73.3,60.9,47.0,59.0,53.3,45.1,97,77,54,30.31,30.22,9,1,12,0.00
2014-11-22,70.0,66.5,61.5,67.5,64.6,58.8,98,94,86,30.28,30.10,7,0,7,0.17
2014-11-23,83.3,74.6,68.8,75.0,71.7,67.3,99,91,71,30.11,29.86,9,0,9,0.12
2014-11-24,85.9,76.4,69.6,76.6,72.4,68.7,99,88,65,30.02,29.90,7,0,7,0.00
2014-11-25,73.2,70.7,68.4,72.9,70.3,67.8,99,99,97,30.02,29.85,6,0,6,6.11
2014-11-26,71.1,57.0,44.6,70.9,55.5,44.4,100,95,76,30.21,29.82,10,0,10,0.39
2014-11-27,68.2,53.0,39.9,54.4,44.5,39.6,100,76,42,30.30,30.16,8,0,10,0.01
2014-11-28,60.7,49.8,41.3,45.9,41.4,34.4,93,73,54,30.34,30.25,6,1,10,0.00
2014-11-29,71.4,53.4,40.6,57.0,49.1,40.1,100,87,56,30.33,30.25,6,0,6,0.00
2014-11-30,76.0,58.7,46.1,62.9,54.5,45.8,100,88,56,30.35,30.27,6,0,7,0.00
2014-12-1,79.5,63.8,50.7,66.9,59.6,50.3,100,88,62,30.35,30.23,9,0,9,0.00
2014-12-2,77.7,66.1,56.5,69.9,63.0,56.1,100,90,73,30.26,30.15,8,0,10,0.01
2014-12-3,80.3,66.3,56.4,68.1,62.2,56.1,100,88,59,30.22,30.13,7,0,8,0.01
2014-12-4,80.1,69.5,61.5,67.4,65.0,61.1,99,87,61,30.23,30.15,8,0,10,0.00
2014-12-5,79.5,69.6,62.7,69.8,66.3,62.3,99,90,70,30.27,30.19,8,0,8,0.01
2014-12-6,79.6,69.6,63.8,70.3,66.8,63.1,99,92,69,30.23,30.09,4,0,5,0.08
2014-12-7,70.3,64.3,58.9,64.7,61.3,55.8,99,90,77,30.13,30.06,7,0,8,0.13
2014-12-8,65.4,60.6,54.5,64.7,59.8,51.8,99,97,92,30.11,30.04,9,1,9,0.08
2014-12-9,64.5,54.3,44.6,52.4,48.2,42.6,97,81,53,30.09,29.99,7,1,8,0.00
2014-12-10,62.6,49.7,37.5,46.3,42.0,36.9,99,78,44,30.16,30.06,5,0,8,0.00
2014-12-11,62.7,47.5,35.9,47.1,41.5,35.6,100,83,52,30.21,30.10,7,0,8,0.00
2014-12-12,62.8,47.6,38.1,47.4,41.9,36.9,99,83,40,30.28,30.18,1,0,4,0.00
2014-12-13,67.1,52.0,35.8,48.7,40.3,31.5,100,71,28,30.22,30.09,6,0,8,0.01
2014-12-14,69.6,49.1,35.1,48.1,40.2,34.8,100,78,32,30.13,30.03,4,0,4,0.00
2014-12-15,69.8,48.6,35.2,53.2,40.6,32.6,100,80,27,30.16,30.06,5,0,5,0.00
2014-12-16,72.0,53.0,36.6,55.4,46.2,36.3,100,82,41,30.22,30.10,5,0,6,0.01
2014-12-17,71.5,58.3,47.0,56.6,51.5,45.1,100,81,40,30.22,30.08,6,0,6,0.00
2014-12-18,68.9,52.8,40.3,52.6,47.0,40.0,99,84,49,30.19,30.08,3,0,5,0.00
2014-12-19,69.0,55.3,46.6,52.8,48.7,44.7,99,82,43,30.16,30.06,3,0,3,0.00
2014-12-20,77.5,62.0,48.3,64.0,57.6,47.5,100,87,58,30.14,30.03,5,0,5,0.00
2014-12-21,80.0,67.6,59.7,68.0,64.1,59.1,99,90,63,30.12,30.00,6,0,7,0.50
2014-12-22,78.3,68.9,63.0,70.7,66.9,62.7,100,94,75,30.06,29.89,3,0,4,0.26
2014-12-23,81.0,71.5,63.1,72.5,68.4,62.8,100,91,66,29.98,29.87,6,0,6,0.01
2014-12-24,83.0,75.0,63.7,74.0,70.9,62.3,96,87,71,29.99,29.81,11,1,11,0.53
2014-12-25,63.7,58.1,47.2,62.3,53.5,46.6,98,85,64,30.25,29.94,3,0,5,0.00
2014-12-26,69.3,59.2,46.6,63.4,56.4,46.3,100,91,75,30.26,30.19,4,0,5,0.01
2014-12-27,80.2,69.3,61.2,70.9,65.8,60.2,98,89,69,30.27,30.14,3,0,4,0.00
2014-12-28,81.9,71.1,62.2,72.0,67.0,61.6,99,88,60,30.18,30.07,6,0,6,0.00
2014-12-29,81.2,68.2,58.2,71.1,64.6,57.9,100,89,66,30.15,30.02,6,0,7,0.00
2014-12-30,70.8,64.7,60.8,69.3,64.0,60.0,100,98,94,30.25,30.08,6,0,6,0.35
2014-12-31,62.9,61.0,59.4,62.6,59.9,57.3,99,96,93,30.32,30.18,9,1,9,0.17
2015-1-1,72.4,63.9,59.1,68.2,61.9,57.3,99,93,85,30.29,30.16,6,0,6,0.02
2015-1-2,79.0,67.4,60.5,71.4,65.4,60.2,100,94,74,30.29,30.18,6,0,8,0.00